sensor_id;sensor_type;location;lat;lon;timestamp;temperature;humidity
19180;DHT22;9722;48.754;8.868;2023-07-13T00:01:26;18.90;69.20
19180;DHT22;9722;48.754;8.868;2023-07-13T00:04:47;18.90;69.70
19180;DHT22;9722;48.754;8.868;2023-07-13T00:08:08;18.90;68.60
19180;DHT22;9722;48.754;8.868;2023-07-13T00:11:29;18.90;68.30
19180;DHT22;9722;48.754;8.868;2023-07-13T00:14:50;18.90;68.30
19180;DHT22;9722;48.754;8.868;2023-07-13T00:18:11;18.90;68.10
19180;DHT22;9722;48.754;8.868;2023-07-13T00:21:32;18.90;67.90
19180;DHT22;9722;48.754;8.868;2023-07-13T00:24:53;18.90;67.60
19180;DHT22;9722;48.754;8.868;2023-07-13T00:28:15;18.90;67.30
19180;DHT22;9722;48.754;8.868;2023-07-13T00:31:36;18.90;67.20
19180;DHT22;9722;48.754;8.868;2023-07-13T00:34:58;18.90;67.00
19180;DHT22;9722;48.754;8.868;2023-07-13T00:38:20;18.90;67.10
19180;DHT22;9722;48.754;8.868;2023-07-13T00:41:41;18.80;67.10
19180;DHT22;9722;48.754;8.868;2023-07-13T00:45:05;18.80;67.00
19180;DHT22;9722;48.754;8.868;2023-07-13T00:48:32;18.90;67.00
19180;DHT22;9722;48.754;8.868;2023-07-13T00:51:58;18.90;66.30
19180;DHT22;9722;48.754;8.868;2023-07-13T00:55:21;19.00;65.90
19180;DHT22;9722;48.754;8.868;2023-07-13T00:58:42;19.00;65.90
19180;DHT22;9722;48.754;8.868;2023-07-13T01:02:03;19.10;65.50
19180;DHT22;9722;48.754;8.868;2023-07-13T01:05:25;19.00;65.90
19180;DHT22;9722;48.754;8.868;2023-07-13T01:08:46;19.00;66.50
19180;DHT22;9722;48.754;8.868;2023-07-13T01:12:07;18.90;67.20
19180;DHT22;9722;48.754;8.868;2023-07-13T01:15:45;18.80;67.40
19180;DHT22;9722;48.754;8.868;2023-07-13T01:19:24;18.70;68.10
19180;DHT22;9722;48.754;8.868;2023-07-13T01:22:56;18.50;68.70
19180;DHT22;9722;48.754;8.868;2023-07-13T01:26:16;18.40;69.20
19180;DHT22;9722;48.754;8.868;2023-07-13T01:29:38;18.20;69.90
19180;DHT22;9722;48.754;8.868;2023-07-13T01:33:08;18.10;70.80
19180;DHT22;9722;48.754;8.868;2023-07-13T01:36:29;17.90;71.20
19180;DHT22;9722;48.754;8.868;2023-07-13T01:39:50;17.80;71.90
19180;DHT22;9722;48.754;8.868;2023-07-13T01:43:11;17.60;72.60
19180;DHT22;9722;48.754;8.868;2023-07-13T01:46:31;17.50;73.20
19180;DHT22;9722;48.754;8.868;2023-07-13T01:49:52;17.40;73.20
19180;DHT22;9722;48.754;8.868;2023-07-13T01:53:12;17.30;73.30
19180;DHT22;9722;48.754;8.868;2023-07-13T01:56:33;17.30;73.40
19180;DHT22;9722;48.754;8.868;2023-07-13T01:59:53;17.20;73.60
19180;DHT22;9722;48.754;8.868;2023-07-13T02:03:14;17.10;73.70
19180;DHT22;9722;48.754;8.868;2023-07-13T02:06:38;17.10;74.00
19180;DHT22;9722;48.754;8.868;2023-07-13T02:09:58;17.00;74.30
19180;DHT22;9722;48.754;8.868;2023-07-13T02:13:19;16.90;74.50
19180;DHT22;9722;48.754;8.868;2023-07-13T02:16:40;16.90;74.60
19180;DHT22;9722;48.754;8.868;2023-07-13T02:20:00;16.80;74.40
19180;DHT22;9722;48.754;8.868;2023-07-13T02:23:21;16.70;74.40
19180;DHT22;9722;48.754;8.868;2023-07-13T02:26:41;16.70;74.40
19180;DHT22;9722;48.754;8.868;2023-07-13T02:30:02;16.60;74.20
19180;DHT22;9722;48.754;8.868;2023-07-13T02:33:23;16.60;74.30
19180;DHT22;9722;48.754;8.868;2023-07-13T02:36:43;16.60;74.40
19180;DHT22;9722;48.754;8.868;2023-07-13T02:40:05;16.50;74.60
19180;DHT22;9722;48.754;8.868;2023-07-13T02:43:28;16.50;75.40
19180;DHT22;9722;48.754;8.868;2023-07-13T02:46:50;16.50;76.70
19180;DHT22;9722;48.754;8.868;2023-07-13T02:50:10;16.30;77.40
19180;DHT22;9722;48.754;8.868;2023-07-13T02:53:31;16.20;78.00
19180;DHT22;9722;48.754;8.868;2023-07-13T02:56:51;16.20;78.30
19180;DHT22;9722;48.754;8.868;2023-07-13T03:00:12;16.10;78.30
19180;DHT22;9722;48.754;8.868;2023-07-13T03:03:32;16.10;78.40
19180;DHT22;9722;48.754;8.868;2023-07-13T03:06:53;16.10;79.00
19180;DHT22;9722;48.754;8.868;2023-07-13T03:10:18;16.10;79.30
19180;DHT22;9722;48.754;8.868;2023-07-13T03:13:39;16.10;79.40
19180;DHT22;9722;48.754;8.868;2023-07-13T03:17:00;16.00;80.10
19180;DHT22;9722;48.754;8.868;2023-07-13T03:20:21;16.00;80.80
19180;DHT22;9722;48.754;8.868;2023-07-13T03:23:41;15.90;81.40
19180;DHT22;9722;48.754;8.868;2023-07-13T03:27:04;15.70;82.00
19180;DHT22;9722;48.754;8.868;2023-07-13T03:30:24;15.70;82.80
19180;DHT22;9722;48.754;8.868;2023-07-13T03:33:45;15.60;83.30
19180;DHT22;9722;48.754;8.868;2023-07-13T03:37:05;15.50;83.80
19180;DHT22;9722;48.754;8.868;2023-07-13T03:40:27;15.50;84.50
19180;DHT22;9722;48.754;8.868;2023-07-13T03:43:48;15.40;85.20
19180;DHT22;9722;48.754;8.868;2023-07-13T03:47:09;15.30;85.90
19180;DHT22;9722;48.754;8.868;2023-07-13T03:50:29;15.20;86.20
19180;DHT22;9722;48.754;8.868;2023-07-13T03:53:50;15.10;86.50
19180;DHT22;9722;48.754;8.868;2023-07-13T03:57:10;15.10;86.90
19180;DHT22;9722;48.754;8.868;2023-07-13T04:00:31;15.10;87.30
19180;DHT22;9722;48.754;8.868;2023-07-13T04:03:52;15.10;87.80
19180;DHT22;9722;48.754;8.868;2023-07-13T04:07:13;15.10;88.00
19180;DHT22;9722;48.754;8.868;2023-07-13T04:10:33;15.10;88.30
19180;DHT22;9722;48.754;8.868;2023-07-13T04:13:54;15.10;88.50
19180;DHT22;9722;48.754;8.868;2023-07-13T04:17:15;15.10;88.70
19180;DHT22;9722;48.754;8.868;2023-07-13T04:20:35;15.10;89.10
19180;DHT22;9722;48.754;8.868;2023-07-13T04:23:56;15.10;89.40
19180;DHT22;9722;48.754;8.868;2023-07-13T04:27:17;15.10;89.60
19180;DHT22;9722;48.754;8.868;2023-07-13T04:30:37;15.10;89.90
19180;DHT22;9722;48.754;8.868;2023-07-13T04:33:58;15.10;90.00
19180;DHT22;9722;48.754;8.868;2023-07-13T04:37:20;15.10;90.30
19180;DHT22;9722;48.754;8.868;2023-07-13T04:40:44;15.10;90.50
19180;DHT22;9722;48.754;8.868;2023-07-13T04:44:05;15.00;90.50
19180;DHT22;9722;48.754;8.868;2023-07-13T04:47:25;15.00;90.60
19180;DHT22;9722;48.754;8.868;2023-07-13T04:50:46;15.00;90.60
19180;DHT22;9722;48.754;8.868;2023-07-13T04:54:07;15.10;90.90
19180;DHT22;9722;48.754;8.868;2023-07-13T04:57:28;15.00;91.00
19180;DHT22;9722;48.754;8.868;2023-07-13T05:00:49;15.10;91.20
19180;DHT22;9722;48.754;8.868;2023-07-13T05:04:10;15.20;91.30
19180;DHT22;9722;48.754;8.868;2023-07-13T05:07:30;15.30;91.30
19180;DHT22;9722;48.754;8.868;2023-07-13T05:10:53;15.40;91.10
19180;DHT22;9722;48.754;8.868;2023-07-13T05:14:13;15.60;90.90
19180;DHT22;9722;48.754;8.868;2023-07-13T05:17:35;15.80;90.80
19180;DHT22;9722;48.754;8.868;2023-07-13T05:21:04;16.00;90.60
19180;DHT22;9722;48.754;8.868;2023-07-13T05:24:25;16.10;90.30
19180;DHT22;9722;48.754;8.868;2023-07-13T05:27:45;16.20;90.00
19180;DHT22;9722;48.754;8.868;2023-07-13T05:31:08;16.30;89.60
19180;DHT22;9722;48.754;8.868;2023-07-13T05:34:28;16.40;89.30
19180;DHT22;9722;48.754;8.868;2023-07-13T05:37:49;16.50;88.90
19180;DHT22;9722;48.754;8.868;2023-07-13T05:41:10;16.50;88.70
19180;DHT22;9722;48.754;8.868;2023-07-13T05:44:30;16.60;88.40
19180;DHT22;9722;48.754;8.868;2023-07-13T05:47:55;16.60;87.70
19180;DHT22;9722;48.754;8.868;2023-07-13T05:51:16;16.70;87.50
19180;DHT22;9722;48.754;8.868;2023-07-13T05:54:36;16.80;87.60
19180;DHT22;9722;48.754;8.868;2023-07-13T05:57:57;17.00;87.80
19180;DHT22;9722;48.754;8.868;2023-07-13T06:01:18;17.20;87.30
19180;DHT22;9722;48.754;8.868;2023-07-13T06:04:41;17.30;86.90
19180;DHT22;9722;48.754;8.868;2023-07-13T06:08:01;17.40;86.90
19180;DHT22;9722;48.754;8.868;2023-07-13T06:11:24;17.60;86.60
19180;DHT22;9722;48.754;8.868;2023-07-13T06:14:44;17.90;86.10
19180;DHT22;9722;48.754;8.868;2023-07-13T06:18:05;18.30;85.00
19180;DHT22;9722;48.754;8.868;2023-07-13T06:21:25;18.60;83.50
19180;DHT22;9722;48.754;8.868;2023-07-13T06:24:46;19.00;82.90
19180;DHT22;9722;48.754;8.868;2023-07-13T06:28:07;19.50;80.80
19180;DHT22;9722;48.754;8.868;2023-07-13T06:31:27;20.10;79.30
19180;DHT22;9722;48.754;8.868;2023-07-13T06:34:48;20.80;76.90
19180;DHT22;9722;48.754;8.868;2023-07-13T06:38:08;21.40;71.80
19180;DHT22;9722;48.754;8.868;2023-07-13T06:41:29;21.90;68.30
19180;DHT22;9722;48.754;8.868;2023-07-13T06:44:50;22.50;65.70
19180;DHT22;9722;48.754;8.868;2023-07-13T06:48:11;23.10;62.80
19180;DHT22;9722;48.754;8.868;2023-07-13T06:51:32;23.30;59.40
19180;DHT22;9722;48.754;8.868;2023-07-13T06:54:52;23.30;58.40
19180;DHT22;9722;48.754;8.868;2023-07-13T06:58:14;23.40;57.70
19180;DHT22;9722;48.754;8.868;2023-07-13T07:01:35;23.80;56.50
19180;DHT22;9722;48.754;8.868;2023-07-13T07:04:55;24.40;55.00
19180;DHT22;9722;48.754;8.868;2023-07-13T07:08:16;24.90;53.70
19180;DHT22;9722;48.754;8.868;2023-07-13T07:11:36;25.40;52.60
19180;DHT22;9722;48.754;8.868;2023-07-13T07:14:57;25.70;51.40
19180;DHT22;9722;48.754;8.868;2023-07-13T07:18:17;26.10;50.40
19180;DHT22;9722;48.754;8.868;2023-07-13T07:21:38;26.10;49.10
19180;DHT22;9722;48.754;8.868;2023-07-13T07:24:58;25.90;49.30
19180;DHT22;9722;48.754;8.868;2023-07-13T07:28:19;26.10;49.00
19180;DHT22;9722;48.754;8.868;2023-07-13T07:31:39;26.50;48.00
19180;DHT22;9722;48.754;8.868;2023-07-13T07:35:00;26.80;47.00
19180;DHT22;9722;48.754;8.868;2023-07-13T07:38:20;27.20;46.10
19180;DHT22;9722;48.754;8.868;2023-07-13T07:41:41;27.50;45.90
19180;DHT22;9722;48.754;8.868;2023-07-13T07:45:01;27.90;45.30
19180;DHT22;9722;48.754;8.868;2023-07-13T07:48:22;28.30;44.40
19180;DHT22;9722;48.754;8.868;2023-07-13T07:51:42;28.60;44.40
19180;DHT22;9722;48.754;8.868;2023-07-13T07:55:05;29.10;44.10
19180;DHT22;9722;48.754;8.868;2023-07-13T07:58:26;29.70;43.00
19180;DHT22;9722;48.754;8.868;2023-07-13T08:01:47;30.20;42.10
19180;DHT22;9722;48.754;8.868;2023-07-13T08:05:10;30.70;41.10
19180;DHT22;9722;48.754;8.868;2023-07-13T08:08:31;31.20;40.60
19180;DHT22;9722;48.754;8.868;2023-07-13T08:11:51;31.70;40.00
19180;DHT22;9722;48.754;8.868;2023-07-13T08:15:15;32.00;38.60
19180;DHT22;9722;48.754;8.868;2023-07-13T08:18:36;32.40;38.80
19180;DHT22;9722;48.754;8.868;2023-07-13T08:21:56;32.90;38.00
19180;DHT22;9722;48.754;8.868;2023-07-13T08:25:17;33.10;37.40
19180;DHT22;9722;48.754;8.868;2023-07-13T08:28:37;33.30;37.10
19180;DHT22;9722;48.754;8.868;2023-07-13T08:31:58;33.20;36.50
19180;DHT22;9722;48.754;8.868;2023-07-13T08:35:18;33.40;36.60
19180;DHT22;9722;48.754;8.868;2023-07-13T08:38:39;33.60;36.30
19180;DHT22;9722;48.754;8.868;2023-07-13T08:42:04;33.20;36.10
19180;DHT22;9722;48.754;8.868;2023-07-13T08:45:38;32.60;36.50
19180;DHT22;9722;48.754;8.868;2023-07-13T08:49:12;32.50;36.50
19180;DHT22;9722;48.754;8.868;2023-07-13T08:52:38;32.20;36.70
19180;DHT22;9722;48.754;8.868;2023-07-13T08:55:59;33.00;36.30
19180;DHT22;9722;48.754;8.868;2023-07-13T08:59:24;33.90;35.30
19180;DHT22;9722;48.754;8.868;2023-07-13T09:02:57;34.80;34.20
19180;DHT22;9722;48.754;8.868;2023-07-13T09:06:23;35.10;33.20
19180;DHT22;9722;48.754;8.868;2023-07-13T09:09:50;34.30;33.60
19180;DHT22;9722;48.754;8.868;2023-07-13T09:16:54;34.30;33.80
19180;DHT22;9722;48.754;8.868;2023-07-13T09:20:35;35.30;32.60
19180;DHT22;9722;48.754;8.868;2023-07-13T09:24:01;35.70;31.90
19180;DHT22;9722;48.754;8.868;2023-07-13T09:27:38;35.70;32.30
19180;DHT22;9722;48.754;8.868;2023-07-13T09:31:01;36.30;31.70
19180;DHT22;9722;48.754;8.868;2023-07-13T09:34:23;35.80;31.30
19180;DHT22;9722;48.754;8.868;2023-07-13T09:37:45;35.30;31.90
19180;DHT22;9722;48.754;8.868;2023-07-13T09:42:07;34.80;32.70
19180;DHT22;9722;48.754;8.868;2023-07-13T09:45:03;35.10;32.40
19180;DHT22;9722;48.754;8.868;2023-07-13T09:48:24;36.30;31.70
19180;DHT22;9722;48.754;8.868;2023-07-13T09:51:45;37.30;30.40
19180;DHT22;9722;48.754;8.868;2023-07-13T09:58:43;38.90;29.30
19180;DHT22;9722;48.754;8.868;2023-07-13T10:02:30;39.30;29.20
19180;DHT22;9722;48.754;8.868;2023-07-13T10:05:52;38.80;29.20
19180;DHT22;9722;48.754;8.868;2023-07-13T10:09:17;38.00;29.20
19180;DHT22;9722;48.754;8.868;2023-07-13T10:12:38;36.80;29.70
19180;DHT22;9722;48.754;8.868;2023-07-13T10:15:59;36.30;30.30
19180;DHT22;9722;48.754;8.868;2023-07-13T10:19:29;35.70;31.10
19180;DHT22;9722;48.754;8.868;2023-07-13T10:23:02;35.30;31.60
19180;DHT22;9722;48.754;8.868;2023-07-13T10:26:27;35.10;31.80
19180;DHT22;9722;48.754;8.868;2023-07-13T10:29:59;35.20;32.30
19180;DHT22;9722;48.754;8.868;2023-07-13T10:33:21;35.50;31.70
19180;DHT22;9722;48.754;8.868;2023-07-13T10:36:45;36.00;30.80
19180;DHT22;9722;48.754;8.868;2023-07-13T10:40:12;36.70;29.90
19180;DHT22;9722;48.754;8.868;2023-07-13T10:43:46;37.30;29.10
19180;DHT22;9722;48.754;8.868;2023-07-13T10:47:15;37.80;29.10
19180;DHT22;9722;48.754;8.868;2023-07-13T10:50:38;37.30;29.00
19180;DHT22;9722;48.754;8.868;2023-07-13T10:54:11;36.50;29.20
19180;DHT22;9722;48.754;8.868;2023-07-13T10:57:42;35.60;30.00
19180;DHT22;9722;48.754;8.868;2023-07-13T11:04:28;36.00;30.50
19180;DHT22;9722;48.754;8.868;2023-07-13T11:07:55;35.50;30.90
19180;DHT22;9722;48.754;8.868;2023-07-13T11:18:22;33.90;33.10
19180;DHT22;9722;48.754;8.868;2023-07-13T11:25:29;37.00;30.00
19180;DHT22;9722;48.754;8.868;2023-07-13T11:28:50;37.00;29.50
19180;DHT22;9722;48.754;8.868;2023-07-13T11:32:25;36.10;29.90
19180;DHT22;9722;48.754;8.868;2023-07-13T11:36:04;34.80;30.40
19180;DHT22;9722;48.754;8.868;2023-07-13T11:39:32;33.60;31.50
19180;DHT22;9722;48.754;8.868;2023-07-13T11:42:59;33.30;32.80
19180;DHT22;9722;48.754;8.868;2023-07-13T11:46:27;34.50;32.10
19180;DHT22;9722;48.754;8.868;2023-07-13T11:49:53;36.20;31.10
19180;DHT22;9722;48.754;8.868;2023-07-13T11:53:16;37.20;29.50
19180;DHT22;9722;48.754;8.868;2023-07-13T11:56:37;37.00;29.30
19180;DHT22;9722;48.754;8.868;2023-07-13T12:00:04;37.30;29.10
19180;DHT22;9722;48.754;8.868;2023-07-13T12:03:26;37.90;28.80
19180;DHT22;9722;48.754;8.868;2023-07-13T12:06:56;39.10;28.30
19180;DHT22;9722;48.754;8.868;2023-07-13T12:13:44;41.70;26.10
19180;DHT22;9722;48.754;8.868;2023-07-13T12:17:21;42.30;25.60
19180;DHT22;9722;48.754;8.868;2023-07-13T12:20:43;42.90;24.90
19180;DHT22;9722;48.754;8.868;2023-07-13T12:24:05;43.30;24.60
19180;DHT22;9722;48.754;8.868;2023-07-13T12:27:33;42.40;24.40
19180;DHT22;9722;48.754;8.868;2023-07-13T12:30:58;41.40;24.60
19180;DHT22;9722;48.754;8.868;2023-07-13T12:34:23;40.10;25.30
19180;DHT22;9722;48.754;8.868;2023-07-13T12:37:47;39.60;26.10
19180;DHT22;9722;48.754;8.868;2023-07-13T12:41:08;40.00;26.10
19180;DHT22;9722;48.754;8.868;2023-07-13T12:44:30;40.70;25.70
19180;DHT22;9722;48.754;8.868;2023-07-13T12:47:57;41.50;25.40
19180;DHT22;9722;48.754;8.868;2023-07-13T12:51:24;42.10;25.00
19180;DHT22;9722;48.754;8.868;2023-07-13T12:54:56;42.50;25.00
19180;DHT22;9722;48.754;8.868;2023-07-13T12:58:24;42.90;24.50
19180;DHT22;9722;48.754;8.868;2023-07-13T13:01:46;43.20;24.60
19180;DHT22;9722;48.754;8.868;2023-07-13T13:05:12;43.30;23.70
19180;DHT22;9722;48.754;8.868;2023-07-13T13:08:35;41.70;24.00
19180;DHT22;9722;48.754;8.868;2023-07-13T13:11:56;40.60;25.20
19180;DHT22;9722;48.754;8.868;2023-07-13T13:15:16;40.80;25.50
19180;DHT22;9722;48.754;8.868;2023-07-13T13:18:37;41.30;25.10
19180;DHT22;9722;48.754;8.868;2023-07-13T13:21:57;41.90;24.80
19180;DHT22;9722;48.754;8.868;2023-07-13T13:25:19;42.30;24.80
19180;DHT22;9722;48.754;8.868;2023-07-13T13:28:40;42.80;24.30
19180;DHT22;9722;48.754;8.868;2023-07-13T13:32:00;43.00;24.00
19180;DHT22;9722;48.754;8.868;2023-07-13T13:35:21;42.60;23.50
19180;DHT22;9722;48.754;8.868;2023-07-13T13:38:41;41.40;23.90
19180;DHT22;9722;48.754;8.868;2023-07-13T13:42:02;39.90;25.20
19180;DHT22;9722;48.754;8.868;2023-07-13T13:45:23;38.50;26.20
19180;DHT22;9722;48.754;8.868;2023-07-13T13:48:45;37.30;27.60
19180;DHT22;9722;48.754;8.868;2023-07-13T13:52:08;36.30;27.90
19180;DHT22;9722;48.754;8.868;2023-07-13T13:55:29;35.50;28.10
19180;DHT22;9722;48.754;8.868;2023-07-13T13:58:50;35.00;28.90
19180;DHT22;9722;48.754;8.868;2023-07-13T14:02:25;34.50;29.40
19180;DHT22;9722;48.754;8.868;2023-07-13T14:05:47;33.90;29.20
19180;DHT22;9722;48.754;8.868;2023-07-13T14:09:13;33.40;29.80
19180;DHT22;9722;48.754;8.868;2023-07-13T14:12:35;33.00;30.80
19180;DHT22;9722;48.754;8.868;2023-07-13T14:15:55;32.50;31.00
19180;DHT22;9722;48.754;8.868;2023-07-13T14:19:16;31.90;31.80
19180;DHT22;9722;48.754;8.868;2023-07-13T14:22:36;31.50;32.10
19180;DHT22;9722;48.754;8.868;2023-07-13T14:25:58;31.20;32.70
19180;DHT22;9722;48.754;8.868;2023-07-13T14:29:19;31.20;33.60
19180;DHT22;9722;48.754;8.868;2023-07-13T14:32:40;31.10;33.80
19180;DHT22;9722;48.754;8.868;2023-07-13T14:36:01;30.90;33.50
19180;DHT22;9722;48.754;8.868;2023-07-13T14:39:24;30.70;33.80
19180;DHT22;9722;48.754;8.868;2023-07-13T14:42:44;30.60;34.20
19180;DHT22;9722;48.754;8.868;2023-07-13T14:46:05;30.40;34.60
19180;DHT22;9722;48.754;8.868;2023-07-13T14:49:37;30.30;34.70
19180;DHT22;9722;48.754;8.868;2023-07-13T14:52:58;30.20;35.00
19180;DHT22;9722;48.754;8.868;2023-07-13T14:56:18;30.00;35.20
19180;DHT22;9722;48.754;8.868;2023-07-13T14:59:40;29.80;35.40
19180;DHT22;9722;48.754;8.868;2023-07-13T15:03:01;29.80;35.70
19180;DHT22;9722;48.754;8.868;2023-07-13T15:06:21;29.80;35.70
19180;DHT22;9722;48.754;8.868;2023-07-13T15:09:42;29.70;35.70
19180;DHT22;9722;48.754;8.868;2023-07-13T15:13:20;29.50;35.80
19180;DHT22;9722;48.754;8.868;2023-07-13T15:16:41;29.20;35.90
19180;DHT22;9722;48.754;8.868;2023-07-13T15:23:36;29.00;35.90
19180;DHT22;9722;48.754;8.868;2023-07-13T15:26:56;28.90;36.20
19180;DHT22;9722;48.754;8.868;2023-07-13T15:30:17;28.90;36.40
19180;DHT22;9722;48.754;8.868;2023-07-13T15:33:38;28.80;36.70
19180;DHT22;9722;48.754;8.868;2023-07-13T15:36:58;28.80;37.20
19180;DHT22;9722;48.754;8.868;2023-07-13T15:40:22;28.80;36.90
19180;DHT22;9722;48.754;8.868;2023-07-13T15:43:44;28.80;36.90
19180;DHT22;9722;48.754;8.868;2023-07-13T15:47:08;28.60;36.80
19180;DHT22;9722;48.754;8.868;2023-07-13T15:50:44;28.40;37.00
19180;DHT22;9722;48.754;8.868;2023-07-13T15:54:05;28.30;37.10
19180;DHT22;9722;48.754;8.868;2023-07-13T15:57:29;28.20;37.00
19180;DHT22;9722;48.754;8.868;2023-07-13T16:00:49;28.10;37.00
19180;DHT22;9722;48.754;8.868;2023-07-13T16:04:11;28.00;37.80
19180;DHT22;9722;48.754;8.868;2023-07-13T16:07:31;27.90;37.80
19180;DHT22;9722;48.754;8.868;2023-07-13T16:10:52;28.00;38.00
19180;DHT22;9722;48.754;8.868;2023-07-13T16:14:14;27.90;38.20
19180;DHT22;9722;48.754;8.868;2023-07-13T16:17:35;27.90;38.00
19180;DHT22;9722;48.754;8.868;2023-07-13T16:20:56;27.80;38.50
19180;DHT22;9722;48.754;8.868;2023-07-13T16:24:21;27.60;38.30
19180;DHT22;9722;48.754;8.868;2023-07-13T16:27:42;27.50;38.90
19180;DHT22;9722;48.754;8.868;2023-07-13T16:31:03;27.40;38.80
19180;DHT22;9722;48.754;8.868;2023-07-13T16:34:25;27.30;39.20
19180;DHT22;9722;48.754;8.868;2023-07-13T16:37:46;27.10;39.50
19180;DHT22;9722;48.754;8.868;2023-07-13T16:41:07;27.00;40.00
19180;DHT22;9722;48.754;8.868;2023-07-13T16:44:31;26.90;40.70
19180;DHT22;9722;48.754;8.868;2023-07-13T16:47:52;26.80;40.10
19180;DHT22;9722;48.754;8.868;2023-07-13T16:51:14;26.70;40.30
19180;DHT22;9722;48.754;8.868;2023-07-13T16:54:36;26.60;40.50
19180;DHT22;9722;48.754;8.868;2023-07-13T16:57:59;26.50;40.80
19180;DHT22;9722;48.754;8.868;2023-07-13T17:01:23;26.50;40.60
19180;DHT22;9722;48.754;8.868;2023-07-13T17:04:44;26.50;40.90
19180;DHT22;9722;48.754;8.868;2023-07-13T17:08:15;26.40;41.00
19180;DHT22;9722;48.754;8.868;2023-07-13T17:11:36;26.30;41.00
19180;DHT22;9722;48.754;8.868;2023-07-13T17:15:01;26.20;41.10
19180;DHT22;9722;48.754;8.868;2023-07-13T17:18:27;26.10;41.20
19180;DHT22;9722;48.754;8.868;2023-07-13T17:21:47;26.00;41.60
19180;DHT22;9722;48.754;8.868;2023-07-13T17:25:12;25.90;41.60
19180;DHT22;9722;48.754;8.868;2023-07-13T17:28:33;25.70;42.10
19180;DHT22;9722;48.754;8.868;2023-07-13T17:31:53;25.60;42.30
19180;DHT22;9722;48.754;8.868;2023-07-13T17:35:19;25.50;42.30
19180;DHT22;9722;48.754;8.868;2023-07-13T17:38:44;25.40;42.30
19180;DHT22;9722;48.754;8.868;2023-07-13T17:42:06;25.20;42.60
19180;DHT22;9722;48.754;8.868;2023-07-13T17:45:31;25.20;43.00
19180;DHT22;9722;48.754;8.868;2023-07-13T17:48:52;25.00;43.10
19180;DHT22;9722;48.754;8.868;2023-07-13T17:52:13;24.90;43.40
19180;DHT22;9722;48.754;8.868;2023-07-13T17:55:34;24.70;43.60
19180;DHT22;9722;48.754;8.868;2023-07-13T17:58:55;24.60;43.80
19180;DHT22;9722;48.754;8.868;2023-07-13T18:02:20;24.50;43.90
19180;DHT22;9722;48.754;8.868;2023-07-13T18:05:42;24.40;44.20
19180;DHT22;9722;48.754;8.868;2023-07-13T18:09:22;24.30;44.70
19180;DHT22;9722;48.754;8.868;2023-07-13T18:12:43;24.20;45.10
19180;DHT22;9722;48.754;8.868;2023-07-13T18:16:04;24.00;45.20
19180;DHT22;9722;48.754;8.868;2023-07-13T18:19:30;23.90;45.70
19180;DHT22;9722;48.754;8.868;2023-07-13T18:22:52;23.80;46.20
19180;DHT22;9722;48.754;8.868;2023-07-13T18:26:16;23.70;46.50
19180;DHT22;9722;48.754;8.868;2023-07-13T18:29:37;23.60;47.30
19180;DHT22;9722;48.754;8.868;2023-07-13T18:32:58;23.40;46.90
19180;DHT22;9722;48.754;8.868;2023-07-13T18:36:20;23.30;47.00
19180;DHT22;9722;48.754;8.868;2023-07-13T18:39:40;23.20;47.10
19180;DHT22;9722;48.754;8.868;2023-07-13T18:43:02;23.10;47.10
19180;DHT22;9722;48.754;8.868;2023-07-13T18:46:27;23.00;47.30
19180;DHT22;9722;48.754;8.868;2023-07-13T18:49:52;22.80;47.30
19180;DHT22;9722;48.754;8.868;2023-07-13T18:53:17;22.70;47.60
19180;DHT22;9722;48.754;8.868;2023-07-13T18:56:38;22.50;47.90
19180;DHT22;9722;48.754;8.868;2023-07-13T18:59:58;22.40;48.10
19180;DHT22;9722;48.754;8.868;2023-07-13T19:03:20;22.30;48.10
19180;DHT22;9722;48.754;8.868;2023-07-13T19:06:43;22.10;48.30
19180;DHT22;9722;48.754;8.868;2023-07-13T19:10:03;22.00;48.50
19180;DHT22;9722;48.754;8.868;2023-07-13T19:13:26;21.90;48.80
19180;DHT22;9722;48.754;8.868;2023-07-13T19:16:47;21.80;49.10
19180;DHT22;9722;48.754;8.868;2023-07-13T19:20:12;21.60;49.10
19180;DHT22;9722;48.754;8.868;2023-07-13T19:23:40;21.50;49.40
19180;DHT22;9722;48.754;8.868;2023-07-13T19:27:02;21.40;49.60
19180;DHT22;9722;48.754;8.868;2023-07-13T19:30:23;21.30;49.70
19180;DHT22;9722;48.754;8.868;2023-07-13T19:33:44;21.10;49.90
19180;DHT22;9722;48.754;8.868;2023-07-13T19:37:24;21.10;50.10
19180;DHT22;9722;48.754;8.868;2023-07-13T19:40:45;21.00;50.20
19180;DHT22;9722;48.754;8.868;2023-07-13T19:44:08;20.90;50.20
19180;DHT22;9722;48.754;8.868;2023-07-13T19:47:29;20.90;50.80
19180;DHT22;9722;48.754;8.868;2023-07-13T19:50:50;20.70;51.30
19180;DHT22;9722;48.754;8.868;2023-07-13T19:54:13;20.50;51.80
19180;DHT22;9722;48.754;8.868;2023-07-13T19:57:33;20.40;52.50
19180;DHT22;9722;48.754;8.868;2023-07-13T20:00:54;20.20;52.80
19180;DHT22;9722;48.754;8.868;2023-07-13T20:04:16;20.10;53.40
19180;DHT22;9722;48.754;8.868;2023-07-13T20:07:37;20.00;54.00
19180;DHT22;9722;48.754;8.868;2023-07-13T20:10:58;19.90;54.50
19180;DHT22;9722;48.754;8.868;2023-07-13T20:14:23;19.70;55.00
19180;DHT22;9722;48.754;8.868;2023-07-13T20:17:47;19.60;55.50
19180;DHT22;9722;48.754;8.868;2023-07-13T20:21:10;19.60;55.80
19180;DHT22;9722;48.754;8.868;2023-07-13T20:24:33;19.50;56.10
19180;DHT22;9722;48.754;8.868;2023-07-13T20:27:55;19.50;56.40
19180;DHT22;9722;48.754;8.868;2023-07-13T20:31:15;19.40;56.50
19180;DHT22;9722;48.754;8.868;2023-07-13T20:34:38;19.40;56.80
19180;DHT22;9722;48.754;8.868;2023-07-13T20:38:00;19.40;57.10
19180;DHT22;9722;48.754;8.868;2023-07-13T20:41:21;19.40;57.30
19180;DHT22;9722;48.754;8.868;2023-07-13T20:44:42;19.30;57.50
19180;DHT22;9722;48.754;8.868;2023-07-13T20:51:44;19.20;58.10
19180;DHT22;9722;48.754;8.868;2023-07-13T20:55:19;19.20;58.20
19180;DHT22;9722;48.754;8.868;2023-07-13T20:58:40;19.20;58.70
19180;DHT22;9722;48.754;8.868;2023-07-13T21:02:01;19.20;58.70
19180;DHT22;9722;48.754;8.868;2023-07-13T21:05:23;19.10;58.80
19180;DHT22;9722;48.754;8.868;2023-07-13T21:08:45;19.00;59.00
19180;DHT22;9722;48.754;8.868;2023-07-13T21:12:06;19.00;59.10
19180;DHT22;9722;48.754;8.868;2023-07-13T21:15:30;18.90;59.20
19180;DHT22;9722;48.754;8.868;2023-07-13T21:18:52;18.80;59.50
19180;DHT22;9722;48.754;8.868;2023-07-13T21:22:13;18.70;59.90
19180;DHT22;9722;48.754;8.868;2023-07-13T21:25:35;18.60;60.30
19180;DHT22;9722;48.754;8.868;2023-07-13T21:28:55;18.50;60.70
19180;DHT22;9722;48.754;8.868;2023-07-13T21:32:20;18.50;61.20
19180;DHT22;9722;48.754;8.868;2023-07-13T21:35:43;18.40;61.70
19180;DHT22;9722;48.754;8.868;2023-07-13T21:39:06;18.30;61.90
19180;DHT22;9722;48.754;8.868;2023-07-13T21:42:31;18.30;62.30
19180;DHT22;9722;48.754;8.868;2023-07-13T21:45:52;18.20;62.50
19180;DHT22;9722;48.754;8.868;2023-07-13T21:49:13;18.20;62.80
19180;DHT22;9722;48.754;8.868;2023-07-13T21:52:33;18.10;63.00
19180;DHT22;9722;48.754;8.868;2023-07-13T21:55:56;18.10;63.30
19180;DHT22;9722;48.754;8.868;2023-07-13T21:59:24;18.00;63.50
19180;DHT22;9722;48.754;8.868;2023-07-13T22:02:45;17.90;64.10
19180;DHT22;9722;48.754;8.868;2023-07-13T22:06:08;17.90;64.40
19180;DHT22;9722;48.754;8.868;2023-07-13T22:09:30;17.70;64.40
19180;DHT22;9722;48.754;8.868;2023-07-13T22:12:50;17.60;64.40